Time;durP1;ratioP1;P1;durP2;ratioP2;P2;SDS_P1;SDS_P2;PMS_P1;PMS_P2;Temp;Humidity;BMP_temperature;BMP_pressure;BME280_temperature;BME280_humidity;BME280_pressure;Samples;Min_cycle;Max_cycle;Signal;HPM_P1;HPM_P2
2022/04/16 00:01:08;;;;;;;2.72;2.10;;;15.40;75.80;;;;;;5018510;28;20659;-77
2022/04/16 00:03:35;;;;;;;3.25;2.20;;;15.40;75.90;;;;;;5017546;28;20069;-77
2022/04/16 00:06:02;;;;;;;2.75;2.25;;;15.40;75.90;;;;;;5019183;28;20088;-77
2022/04/16 00:08:30;;;;;;;2.30;1.90;;;15.40;75.70;;;;;;5014983;28;20053;-78
2022/04/16 00:10:58;;;;;;;2.40;2.10;;;15.40;75.80;;;;;;5018336;28;20049;-78
2022/04/16 00:13:25;;;;;;;2.40;2.20;;;15.40;75.80;;;;;;5012576;28;20053;-77
2022/04/16 00:15:54;;;;;;;2.35;2.03;;;15.40;75.80;;;;;;5016499;28;20045;-79
2022/04/16 00:18:21;;;;;;;2.40;2.20;;;15.40;75.80;;;;;;5017208;28;20040;-77
2022/04/16 00:20:49;;;;;;;2.30;2.10;;;15.40;75.80;;;;;;5011441;28;20056;-78
2022/04/16 00:23:19;;;;;;;2.20;2.00;;;15.50;75.80;;;;;;5015412;28;20132;-78
2022/04/16 00:25:46;;;;;;;2.10;1.90;;;15.50;75.90;;;;;;5021646;28;20100;-77
2022/04/16 00:28:13;;;;;;;2.90;2.00;;;15.40;75.90;;;;;;5017527;28;20119;-77
2022/04/16 00:30:40;;;;;;;2.60;2.13;;;15.40;75.70;;;;;;5000882;28;20053;-78
2022/04/16 00:33:10;;;;;;;2.20;2.00;;;15.40;75.70;;;;;;5014603;28;20045;-78
2022/04/16 00:35:38;;;;;;;2.60;2.20;;;15.40;75.70;;;;;;5015597;28;20389;-78
2022/04/16 00:38:05;;;;;;;2.42;2.13;;;15.40;75.70;;;;;;5018111;28;20076;-77
2022/04/16 00:40:32;;;;;;;2.47;2.25;;;15.40;75.60;;;;;;4999066;28;20120;-78
2022/04/16 00:43:00;;;;;;;2.70;2.30;;;15.40;75.70;;;;;;4999008;28;20069;-79
2022/04/16 00:45:28;;;;;;;2.97;2.22;;;15.40;75.70;;;;;;5015945;28;20262;-77
2022/04/16 00:47:55;;;;;;;2.38;2.05;;;15.40;75.60;;;;;;5012624;28;20044;-78
2022/04/16 00:50:23;;;;;;;2.40;2.00;;;15.40;75.70;;;;;;4996290;28;21559;-79
2022/04/16 00:52:50;;;;;;;2.80;2.20;;;15.40;75.70;;;;;;5016148;28;20095;-78
2022/04/16 00:55:19;;;;;;;2.33;2.00;;;15.40;75.70;;;;;;5014580;28;20037;-77
2022/04/16 00:57:46;;;;;;;3.00;2.30;;;15.30;75.50;;;;;;5032979;28;20040;-78
2022/04/16 01:00:14;;;;;;;2.20;2.00;;;15.40;75.60;;;;;;5030103;28;20057;-78
2022/04/16 01:02:43;;;;;;;2.88;2.20;;;15.30;75.40;;;;;;5000953;28;20041;-79
2022/04/16 01:05:12;;;;;;;2.75;2.35;;;15.30;75.40;;;;;;5017191;28;20064;-77
2022/04/16 01:07:53;;;;;;;2.42;2.10;;;15.30;75.50;;;;;;5014715;28;20475;-78
2022/04/16 01:10:21;;;;;;;2.78;2.13;;;15.30;75.40;;;;;;5017559;28;20048;-78
2022/04/16 01:12:48;;;;;;;2.65;2.38;;;15.40;75.50;;;;;;5011658;28;20480;-79
2022/04/16 01:15:16;;;;;;;3.25;2.10;;;15.30;75.40;;;;;;5012137;28;20068;-79
2022/04/16 01:17:43;;;;;;;2.47;2.10;;;15.30;75.30;;;;;;4993119;28;20041;-78
2022/04/16 01:20:11;;;;;;;2.72;2.30;;;15.20;75.30;;;;;;5013819;28;20498;-79
2022/04/16 01:22:39;;;;;;;2.95;2.20;;;15.30;75.40;;;;;;5014533;28;20053;-77
2022/04/16 01:25:07;;;;;;;2.30;2.10;;;15.30;75.30;;;;;;5013225;28;20072;-77
2022/04/16 01:27:35;;;;;;;2.40;2.10;;;15.30;75.40;;;;;;5020299;28;20111;-77
2022/04/16 01:30:03;;;;;;;3.33;2.30;;;15.30;75.30;;;;;;5019436;28;20051;-78
2022/04/16 01:32:30;;;;;;;2.65;2.35;;;15.30;75.40;;;;;;5019143;28;20044;-78
2022/04/16 01:34:56;;;;;;;2.92;2.10;;;15.30;75.30;;;;;;4999898;28;20038;-78
2022/04/16 01:37:28;;;;;;;2.33;1.92;;;15.30;75.30;;;;;;4999349;28;20077;-78
2022/04/16 01:40:05;;;;;;;2.63;2.00;;;15.30;76.10;;;;;;5021200;28;20090;-78
2022/04/16 01:42:33;;;;;;;2.50;2.30;;;15.30;75.20;;;;;;5014211;28;20036;-78
2022/04/16 01:45:02;;;;;;;2.58;2.15;;;15.30;76.00;;;;;;5038705;28;20046;-78
2022/04/16 01:47:29;;;;;;;2.63;2.08;;;15.30;75.10;;;;;;5031943;28;20041;-78
2022/04/16 01:49:56;;;;;;;2.70;2.13;;;15.30;75.10;;;;;;5028736;28;20123;-78
2022/04/16 01:52:23;;;;;;;2.25;2.00;;;15.30;75.10;;;;;;5010075;28;20053;-78
2022/04/16 01:54:50;;;;;;;3.17;2.15;;;15.30;75.00;;;;;;5009339;28;20046;-78
2022/04/16 01:57:19;;;;;;;2.53;2.10;;;15.20;74.90;;;;;;5012744;28;20049;-77
2022/04/16 01:59:47;;;;;;;2.50;2.05;;;15.30;75.00;;;;;;5015276;28;20058;-78
2022/04/16 02:02:14;;;;;;;2.28;1.85;;;15.30;75.10;;;;;;4994514;28;20397;-77
2022/04/16 02:04:42;;;;;;;3.00;2.17;;;15.30;75.10;;;;;;5018015;28;20085;-78
2022/04/16 02:07:10;;;;;;;3.00;2.20;;;15.30;75.10;;;;;;5021080;28;20045;-77
2022/04/16 02:09:37;;;;;;;2.88;2.10;;;15.30;74.90;;;;;;5022006;28;20080;-78
2022/04/16 02:12:08;;;;;;;3.25;2.13;;;15.20;75.00;;;;;;4994776;28;20042;-78
2022/04/16 02:14:36;;;;;;;2.83;2.10;;;15.20;74.90;;;;;;4998033;28;20132;-78
2022/04/16 02:17:04;;;;;;;2.45;2.10;;;15.20;75.00;;;;;;5000682;28;20038;-78
2022/04/16 02:19:33;;;;;;;2.55;2.05;;;15.20;75.00;;;;;;5015549;28;20410;-77
2022/04/16 02:22:01;;;;;;;2.53;2.00;;;15.20;74.90;;;;;;4997601;28;20106;-77
2022/04/16 02:24:28;;;;;;;2.85;2.10;;;15.20;75.00;;;;;;5016212;28;20069;-78
2022/04/16 02:26:55;;;;;;;2.85;2.03;;;15.20;74.90;;;;;;5014227;28;20068;-79
2022/04/16 02:29:22;;;;;;;2.83;2.00;;;15.20;74.90;;;;;;4991970;28;20054;-77
2022/04/16 02:31:52;;;;;;;3.03;2.13;;;15.20;74.90;;;;;;5013414;28;20052;-78
2022/04/16 02:34:19;;;;;;;2.65;1.92;;;15.20;74.90;;;;;;4992962;28;20140;-77
2022/04/16 02:36:46;;;;;;;2.45;1.90;;;15.20;74.90;;;;;;5014149;28;20049;-77
2022/04/16 02:39:14;;;;;;;2.25;1.80;;;15.20;74.90;;;;;;4994931;28;20045;-77
2022/04/16 02:41:41;;;;;;;2.50;2.17;;;15.20;74.90;;;;;;5014392;28;20041;-78
2022/04/16 02:47:04;;;;;;;2.47;1.92;;;15.20;74.80;;;;;;5009586;28;20033;-77
2022/04/16 02:47:05;;;;;;;2.35;2.08;;;15.20;74.90;;;;;;5013840;28;20038;-78
2022/04/16 02:49:33;;;;;;;2.30;1.90;;;15.20;74.80;;;;;;5013899;28;20244;-77
2022/04/16 02:52:01;;;;;;;2.78;2.03;;;15.20;75.50;;;;;;5013336;28;20052;-77
2022/04/16 02:54:28;;;;;;;2.55;2.08;;;15.20;74.90;;;;;;5013770;28;20103;-78
2022/04/16 02:56:56;;;;;;;2.38;2.15;;;15.20;74.80;;;;;;5016002;28;20095;-78
2022/04/16 02:59:23;;;;;;;2.85;2.05;;;15.20;74.70;;;;;;5022414;28;20037;-77
2022/04/16 03:01:50;;;;;;;2.80;2.00;;;15.20;74.80;;;;;;5012411;28;20044;-78
2022/04/16 03:04:19;;;;;;;2.00;1.80;;;15.20;74.60;;;;;;5013705;28;20041;-78
2022/04/16 03:06:46;;;;;;;2.47;1.95;;;15.20;74.70;;;;;;5017566;28;20046;-77
2022/04/16 03:09:13;;;;;;;2.70;1.95;;;15.20;74.60;;;;;;5007579;28;20068;-77
2022/04/16 03:11:43;;;;;;;2.72;2.10;;;15.20;74.70;;;;;;5022662;28;20072;-76
2022/04/16 03:19:40;;;;;;;2.90;2.40;;;15.10;74.50;;;;;;5016257;28;20072;-76
2022/04/16 03:22:18;;;;;;;2.67;2.10;;;15.10;74.50;;;;;;5020706;28;20048;-75
2022/04/16 03:24:44;;;;;;;2.60;2.17;;;15.10;74.50;;;;;;5016550;28;20046;-76
2022/04/16 03:27:11;;;;;;;2.88;2.13;;;15.10;74.50;;;;;;5021707;28;20041;-75
2022/04/16 03:29:39;;;;;;;3.92;2.20;;;15.10;74.50;;;;;;5016791;28;20049;-77
2022/04/16 03:32:07;;;;;;;2.05;1.83;;;15.10;74.60;;;;;;5009656;28;20131;-76
2022/04/16 03:34:37;;;;;;;3.28;2.03;;;15.10;74.50;;;;;;5021708;28;20037;-77
2022/04/16 03:37:06;;;;;;;2.53;2.00;;;15.10;74.40;;;;;;4998760;28;20492;-75
2022/04/16 03:39:46;;;;;;;2.30;1.95;;;15.10;74.40;;;;;;5031000;28;20041;-76
2022/04/16 03:42:13;;;;;;;2.67;2.30;;;15.10;74.40;;;;;;5040397;28;20087;-76
2022/04/16 03:44:43;;;;;;;3.05;2.10;;;15.10;74.40;;;;;;5032837;28;20052;-77
2022/04/16 03:47:11;;;;;;;3.35;2.08;;;15.10;74.50;;;;;;5028449;28;20080;-76
2022/04/16 03:49:38;;;;;;;3.13;2.10;;;15.10;74.40;;;;;;5024747;28;20048;-77
2022/04/16 03:52:08;;;;;;;2.47;2.08;;;15.10;74.30;;;;;;5018823;28;20069;-76
2022/04/16 04:00:05;;;;;;;3.38;2.03;;;15.10;74.30;;;;;;5011724;28;20045;-76
2022/04/16 04:02:34;;;;;;;2.38;1.98;;;15.10;74.30;;;;;;5016083;28;20493;-76
2022/04/16 04:05:02;;;;;;;2.72;2.17;;;15.10;74.40;;;;;;5014338;28;20545;-76
2022/04/16 04:07:31;;;;;;;2.92;2.10;;;15.10;74.20;;;;;;5019263;28;20033;-76
2022/04/16 04:09:58;;;;;;;3.30;2.40;;;15.10;74.20;;;;;;5016927;28;20048;-77
2022/04/16 04:12:25;;;;;;;2.70;2.13;;;15.10;74.60;;;;;;5015060;28;20038;-77
2022/04/16 04:14:52;;;;;;;2.53;2.10;;;15.10;74.20;;;;;;5017773;28;20052;-76
2022/04/16 04:17:19;;;;;;;2.50;2.13;;;15.10;74.30;;;;;;5021141;28;20052;-76
2022/04/16 04:19:47;;;;;;;3.13;2.40;;;15.10;74.10;;;;;;4999843;28;20282;-76
2022/04/16 04:22:16;;;;;;;2.63;2.00;;;15.10;74.20;;;;;;5021900;28;20042;-77
2022/04/16 04:24:45;;;;;;;3.20;2.30;;;15.10;74.30;;;;;;5029926;28;20045;-76
2022/04/16 04:27:12;;;;;;;2.97;2.50;;;15.00;74.10;;;;;;5029594;28;20265;-76
2022/04/16 04:29:39;;;;;;;2.60;2.15;;;15.00;74.20;;;;;;5019502;28;20041;-75
2022/04/16 04:32:07;;;;;;;3.08;2.30;;;15.00;74.10;;;;;;5018087;28;20052;-76
2022/04/16 04:34:35;;;;;;;3.80;2.28;;;15.00;74.10;;;;;;5019505;28;20052;-75
2022/04/16 04:37:02;;;;;;;3.03;2.40;;;15.10;74.10;;;;;;5016433;28;20057;-76
2022/04/16 04:39:29;;;;;;;3.60;2.40;;;15.00;73.90;;;;;;5001810;28;20053;-76
2022/04/16 04:41:57;;;;;;;2.50;2.15;;;15.00;73.90;;;;;;5016013;28;20103;-76
2022/04/16 04:44:24;;;;;;;3.03;2.40;;;15.10;74.10;;;;;;4995885;28;20053;-78
2022/04/16 04:46:51;;;;;;;2.78;2.30;;;15.00;73.80;;;;;;4996618;28;20143;-77
2022/04/16 04:49:18;;;;;;;2.40;2.20;;;15.00;73.90;;;;;;4998786;28;20038;-77
2022/04/16 04:51:44;;;;;;;3.08;2.20;;;15.10;74.00;;;;;;5016164;28;20404;-77
2022/04/16 04:54:12;;;;;;;2.75;2.35;;;15.00;73.90;;;;;;4997111;28;20056;-76
2022/04/16 04:56:38;;;;;;;2.75;2.30;;;15.00;73.90;;;;;;5017794;28;20045;-77
2022/04/16 04:59:06;;;;;;;3.55;2.60;;;15.00;74.00;;;;;;5016208;28;20037;-76
2022/04/16 05:01:33;;;;;;;3.38;2.50;;;15.10;74.10;;;;;;4999576;28;20088;-76
2022/04/16 05:04:01;;;;;;;3.28;2.58;;;15.00;73.90;;;;;;5014609;28;20111;-77
2022/04/16 05:06:29;;;;;;;2.67;2.25;;;15.00;73.80;;;;;;5016837;28;20088;-75
2022/04/16 05:08:56;;;;;;;2.63;2.30;;;15.00;73.80;;;;;;5002090;28;20046;-78
2022/04/16 05:11:23;;;;;;;3.15;2.75;;;15.10;73.90;;;;;;5015786;28;20401;-78
2022/04/16 05:13:50;;;;;;;3.05;2.50;;;15.00;73.80;;;;;;5014491;28;20061;-76
2022/04/16 05:16:18;;;;;;;3.55;2.70;;;15.00;73.80;;;;;;5013488;28;20112;-77
2022/04/16 05:18:46;;;;;;;2.80;2.45;;;15.00;73.80;;;;;;5012759;28;20145;-76
2022/04/16 05:21:12;;;;;;;2.92;2.50;;;15.00;73.80;;;;;;5017403;28;20132;-78
2022/04/16 05:23:42;;;;;;;3.22;2.60;;;15.00;73.80;;;;;;5015557;28;20046;-76
2022/04/16 05:26:10;;;;;;;3.13;2.45;;;15.00;73.80;;;;;;5032257;28;20042;-78
2022/04/16 05:28:37;;;;;;;3.10;2.55;;;15.00;73.80;;;;;;5009095;28;20103;-76
2022/04/16 05:31:05;;;;;;;3.05;2.50;;;15.00;73.70;;;;;;5003810;28;20052;-78
2022/04/16 05:36:19;;;;;;;2.70;2.40;;;15.00;73.60;;;;;;5001276;28;20171;-77
2022/04/16 05:38:46;;;;;;;3.28;2.40;;;15.10;73.80;;;;;;5032925;28;20060;-77
2022/04/16 05:41:13;;;;;;;4.88;2.20;;;15.00;73.70;;;;;;5028638;28;20045;-77
2022/04/16 05:43:40;;;;;;;2.83;2.20;;;15.00;73.70;;;;;;5018133;28;20049;-77
2022/04/16 05:46:07;;;;;;;2.83;2.47;;;15.00;73.60;;;;;;5015977;28;20081;-76
2022/04/16 05:48:36;;;;;;;3.40;2.55;;;15.00;73.70;;;;;;5014570;28;20049;-77
2022/04/16 05:51:04;;;;;;;2.63;2.35;;;15.00;73.70;;;;;;5014321;28;20049;-77
2022/04/16 05:53:32;;;;;;;3.72;2.80;;;15.00;73.70;;;;;;5015670;28;20048;-80
2022/04/16 05:56:00;;;;;;;3.10;2.70;;;15.00;73.70;;;;;;5016796;28;20041;-79
2022/04/16 05:58:27;;;;;;;2.80;2.45;;;15.00;73.80;;;;;;5009938;28;20154;-79
2022/04/16 06:00:54;;;;;;;3.25;2.55;;;15.00;73.70;;;;;;5016168;28;20048;-79
2022/04/16 06:03:21;;;;;;;3.10;2.70;;;14.90;73.60;;;;;;5014369;28;20045;-77
2022/04/16 06:05:52;;;;;;;2.80;2.40;;;15.00;73.70;;;;;;4999499;28;20049;-77
2022/04/16 06:08:19;;;;;;;3.30;2.40;;;15.00;73.70;;;;;;5015292;28;20042;-79
2022/04/16 06:10:46;;;;;;;3.00;2.45;;;15.00;73.50;;;;;;5017056;28;20076;-79
2022/04/16 06:13:13;;;;;;;3.20;2.28;;;15.00;73.70;;;;;;4995512;28;20140;-79
2022/04/16 06:15:41;;;;;;;2.90;2.38;;;15.00;73.60;;;;;;5009311;28;20056;-79
2022/04/16 06:18:09;;;;;;;3.50;2.60;;;15.00;73.40;;;;;;5017200;28;20045;-79
2022/04/16 06:20:37;;;;;;;4.15;2.60;;;15.00;73.30;;;;;;5004936;28;20045;-78
2022/04/16 06:23:07;;;;;;;3.45;2.53;;;15.00;74.00;;;;;;5013706;28;20064;-79
2022/04/16 06:25:34;;;;;;;3.40;2.65;;;15.00;73.30;;;;;;5010109;28;20100;-77
2022/04/16 06:28:02;;;;;;;2.67;2.30;;;15.10;73.30;;;;;;5015479;28;20603;-78
2022/04/16 06:30:29;;;;;;;2.97;2.60;;;15.00;73.20;;;;;;5012013;28;20042;-79
2022/04/16 06:32:56;;;;;;;3.10;2.50;;;15.00;73.20;;;;;;5008821;28;20128;-81
2022/04/16 06:35:24;;;;;;;3.03;2.20;;;15.00;73.10;;;;;;4995449;28;20126;-80
2022/04/16 06:37:51;;;;;;;2.88;2.30;;;15.00;73.10;;;;;;5012714;28;20045;-78
2022/04/16 06:40:22;;;;;;;2.97;2.10;;;15.00;73.10;;;;;;4992396;28;20105;-78
2022/04/16 06:42:52;;;;;;;2.73;2.27;;;15.00;73.10;;;;;;5007404;28;20045;-77
2022/04/16 06:45:19;;;;;;;3.28;2.30;;;15.10;73.10;;;;;;5014953;28;20300;-79
2022/04/16 06:47:46;;;;;;;3.72;2.30;;;15.00;73.00;;;;;;5009422;28;20038;-77
2022/04/16 06:50:13;;;;;;;3.50;2.30;;;15.00;72.90;;;;;;4992309;28;20072;-80
2022/04/16 06:52:40;;;;;;;2.55;1.92;;;15.00;72.90;;;;;;5011022;28;20401;-77
2022/04/16 06:55:08;;;;;;;2.63;2.30;;;15.10;73.00;;;;;;5006368;28;20038;-78
2022/04/16 06:57:38;;;;;;;2.63;2.00;;;15.10;72.90;;;;;;5014397;28;20049;-81
2022/04/16 07:00:07;;;;;;;3.72;2.20;;;15.10;72.90;;;;;;5010083;28;20124;-81
2022/04/16 07:02:34;;;;;;;3.85;2.03;;;15.10;72.90;;;;;;4998448;28;20095;-80
2022/04/16 07:05:02;;;;;;;3.22;2.35;;;15.10;72.80;;;;;;4998520;28;20057;-82
2022/04/16 07:07:29;;;;;;;2.70;2.28;;;15.10;72.80;;;;;;5013287;28;20045;-79
2022/04/16 07:09:56;;;;;;;3.00;2.00;;;15.10;72.80;;;;;;5016371;28;20065;-79
2022/04/16 07:12:23;;;;;;;2.67;2.22;;;15.10;72.70;;;;;;5010292;28;20038;-81
2022/04/16 07:14:51;;;;;;;2.92;2.20;;;15.10;72.60;;;;;;4997053;28;20063;-79
2022/04/16 07:17:18;;;;;;;3.72;3.03;;;15.10;72.50;;;;;;5017227;28;20041;-79
2022/04/16 07:19:45;;;;;;;3.03;2.65;;;15.10;72.30;;;;;;5010558;28;20060;-78
2022/04/16 07:22:12;;;;;;;4.43;3.00;;;15.10;72.30;;;;;;5009201;28;20074;-79
2022/04/16 07:24:41;;;;;;;3.42;2.90;;;15.10;72.30;;;;;;5012950;28;20049;-77
2022/04/16 07:27:08;;;;;;;3.65;2.83;;;15.20;72.50;;;;;;5013876;28;20144;-79
2022/04/16 07:29:35;;;;;;;6.78;5.45;;;15.10;72.30;;;;;;5010231;28;20061;-77
2022/04/16 07:32:04;;;;;;;8.55;7.28;;;15.10;72.30;;;;;;5015100;28;20091;-78
2022/04/16 07:34:31;;;;;;;7.38;6.00;;;15.00;72.60;;;;;;5014173;28;20148;-77
2022/04/16 07:36:58;;;;;;;6.32;4.80;;;15.00;72.80;;;;;;5034745;28;20041;-76
2022/04/16 07:39:25;;;;;;;5.65;4.10;;;15.00;72.60;;;;;;5030147;28;20037;-76
2022/04/16 07:41:52;;;;;;;5.32;4.57;;;15.00;72.70;;;;;;5027024;28;20045;-76
2022/04/16 07:44:19;;;;;;;5.03;4.22;;;15.10;72.80;;;;;;5023482;28;20034;-77
2022/04/16 07:46:47;;;;;;;6.03;4.47;;;15.00;72.50;;;;;;5022017;28;20045;-77
2022/04/16 07:49:17;;;;;;;6.32;5.40;;;15.10;72.60;;;;;;4998959;28;20152;-77
2022/04/16 07:51:45;;;;;;;6.38;5.15;;;15.20;72.70;;;;;;5013937;28;20044;-77
2022/04/16 07:54:12;;;;;;;6.40;5.35;;;15.10;72.50;;;;;;5015900;28;20170;-77
2022/04/16 07:56:39;;;;;;;5.47;4.40;;;15.10;72.70;;;;;;5016430;28;20136;-77
2022/04/16 07:59:06;;;;;;;6.47;4.82;;;15.20;72.80;;;;;;5011031;28;20052;-77
2022/04/16 08:01:33;;;;;;;6.18;4.90;;;15.20;72.80;;;;;;5014293;28;20033;-78
2022/04/16 08:04:00;;;;;;;5.53;4.53;;;15.20;72.90;;;;;;5018021;28;20069;-77
2022/04/16 08:06:28;;;;;;;5.88;4.80;;;15.20;72.90;;;;;;5015421;28;20052;-77
2022/04/16 08:09:00;;;;;;;5.80;4.40;;;15.20;72.90;;;;;;4994576;28;20034;-77
2022/04/16 08:11:28;;;;;;;5.13;4.10;;;15.20;73.00;;;;;;5013478;28;20053;-77
2022/04/16 08:13:55;;;;;;;6.57;4.80;;;15.20;72.90;;;;;;5016640;28;20037;-77
2022/04/16 08:16:21;;;;;;;5.63;4.50;;;15.20;72.90;;;;;;5018723;28;20452;-77
2022/04/16 08:18:48;;;;;;;6.75;4.28;;;15.20;73.00;;;;;;5020631;28;20056;-77
2022/04/16 08:21:15;;;;;;;4.30;3.80;;;15.30;73.80;;;;;;5001365;28;20060;-77
2022/04/16 08:23:55;;;;;;;5.72;4.25;;;15.20;73.00;;;;;;5015548;28;20045;-77
2022/04/16 08:26:23;;;;;;;4.85;3.72;;;15.30;73.10;;;;;;5019773;28;20045;-77
2022/04/16 08:28:50;;;;;;;4.53;4.03;;;15.30;73.20;;;;;;5012242;28;20034;-77
2022/04/16 08:31:17;;;;;;;4.65;3.80;;;15.30;73.10;;;;;;4996121;28;20049;-77
2022/04/16 08:33:44;;;;;;;5.00;3.65;;;15.30;73.10;;;;;;5017955;28;20045;-77
2022/04/16 08:36:11;;;;;;;4.57;3.67;;;15.30;73.10;;;;;;5017968;28;20047;-77
2022/04/16 08:38:38;;;;;;;4.25;3.45;;;15.30;73.10;;;;;;5020888;28;20510;-77
2022/04/16 08:41:11;;;;;;;4.97;3.60;;;15.30;73.20;;;;;;5017192;28;20051;-77
2022/04/16 08:43:39;;;;;;;3.88;3.40;;;15.30;73.30;;;;;;4998619;28;20053;-76
2022/04/16 08:46:06;;;;;;;4.68;3.95;;;15.30;73.20;;;;;;5012510;28;20083;-77
2022/04/16 08:48:34;;;;;;;8.65;3.72;;;15.30;73.20;;;;;;5015258;28;20038;-76
2022/04/16 08:51:02;;;;;;;4.75;3.30;;;15.30;73.20;;;;;;5019600;28;20049;-76
2022/04/16 08:53:30;;;;;;;5.60;3.60;;;15.30;73.10;;;;;;5012038;28;20049;-76
2022/04/16 08:55:57;;;;;;;3.90;3.25;;;15.40;73.40;;;;;;5017929;28;20497;-76
2022/04/16 08:58:25;;;;;;;4.32;3.50;;;15.40;73.30;;;;;;5011542;28;20136;-76
2022/04/16 09:00:51;;;;;;;3.42;2.90;;;15.40;73.40;;;;;;5000069;28;20081;-76
2022/04/16 09:03:18;;;;;;;4.15;3.53;;;15.40;73.40;;;;;;4998957;28;20046;-75
2022/04/16 09:05:46;;;;;;;4.43;3.30;;;15.40;73.30;;;;;;4997650;28;20132;-76
2022/04/16 09:08:13;;;;;;;3.72;3.20;;;15.40;73.30;;;;;;4998230;28;20427;-76
2022/04/16 09:10:43;;;;;;;3.90;3.15;;;15.40;73.20;;;;;;4982276;28;20091;-76
2022/04/16 09:13:22;;;;;;;3.55;3.00;;;15.40;73.10;;;;;;4981554;28;20076;-76
2022/04/16 09:15:50;;;;;;;3.70;2.95;;;15.40;73.30;;;;;;4992709;28;20077;-75
2022/04/16 09:18:19;;;;;;;3.85;2.97;;;15.40;73.30;;;;;;4995218;28;20053;-76
2022/04/16 09:20:46;;;;;;;3.42;2.95;;;15.40;73.20;;;;;;4998069;28;20046;-75
2022/04/16 09:23:18;;;;;;;3.90;2.70;;;15.50;73.10;;;;;;4998984;28;20046;-75
2022/04/16 09:25:45;;;;;;;3.33;3.00;;;15.40;73.00;;;;;;4998940;28;20052;-75
2022/04/16 09:28:15;;;;;;;5.93;3.63;;;15.50;72.90;;;;;;5000944;28;20034;-75
2022/04/16 09:30:51;;;;;;;5.45;3.53;;;15.40;70.50;;;;;;4982995;28;20148;-75
2022/04/16 09:33:20;;;;;;;5.60;3.67;;;15.40;70.30;;;;;;5004085;28;20037;-76
2022/04/16 09:35:53;;;;;;;4.93;2.95;;;15.40;69.80;;;;;;5018001;28;20048;-76
2022/04/16 09:38:20;;;;;;;4.43;3.40;;;15.40;69.60;;;;;;5014278;28;20042;-75
2022/04/16 09:40:49;;;;;;;4.53;3.33;;;15.40;69.30;;;;;;5003456;28;20116;-76
2022/04/16 09:43:16;;;;;;;4.93;3.42;;;15.40;68.60;;;;;;5004154;28;20045;-76
2022/04/16 09:45:43;;;;;;;5.78;3.35;;;15.40;69.00;;;;;;5009563;28;20034;-76
2022/04/16 09:48:14;;;;;;;4.22;3.05;;;15.40;68.80;;;;;;5022472;28;20034;-76
2022/04/16 09:50:44;;;;;;;4.55;2.70;;;15.50;68.60;;;;;;5008908;28;20121;-76
2022/04/16 09:53:12;;;;;;;4.45;2.90;;;15.50;68.40;;;;;;5007723;28;20071;-76
2022/04/16 09:55:41;;;;;;;4.63;2.45;;;15.50;68.70;;;;;;5009079;28;20060;-75
2022/04/16 09:58:11;;;;;;;3.70;2.70;;;15.50;68.60;;;;;;4999559;28;20120;-76
2022/04/16 10:00:40;;;;;;;5.13;2.85;;;15.40;68.20;;;;;;4996027;28;20050;-76
2022/04/16 10:03:08;;;;;;;4.82;2.97;;;15.50;68.60;;;;;;4995054;28;20078;-76
2022/04/16 10:05:39;;;;;;;3.63;2.90;;;15.50;68.70;;;;;;4980222;28;20046;-76
2022/04/16 10:08:07;;;;;;;3.78;2.70;;;15.50;68.30;;;;;;4998922;28;21037;-75
2022/04/16 10:10:41;;;;;;;12.48;3.08;;;15.50;68.50;;;;;;4995461;28;20042;-74
2022/04/16 10:13:11;;;;;;;8.60;3.00;;;15.50;68.80;;;;;;4992586;28;20133;-75
2022/04/16 10:15:56;;;;;;;10.52;3.08;;;15.50;68.90;;;;;;4978974;28;20056;-75
2022/04/16 10:18:23;;;;;;;3.47;2.60;;;15.70;68.80;;;;;;4996820;28;20041;-75
2022/04/16 10:20:56;;;;;;;4.22;2.70;;;15.50;68.70;;;;;;4996936;28;20108;-75
2022/04/16 10:23:28;;;;;;;3.70;2.33;;;15.60;69.20;;;;;;4999553;28;20132;-75
2022/04/16 10:26:02;;;;;;;5.22;2.38;;;15.50;68.90;;;;;;4982425;28;20480;-75
2022/04/16 10:28:37;;;;;;;3.72;2.17;;;15.60;68.90;;;;;;4994249;28;20166;-74
2022/04/16 10:31:05;;;;;;;4.47;2.17;;;15.60;69.00;;;;;;4959332;28;20048;-75
2022/04/16 10:33:32;;;;;;;4.20;2.15;;;15.60;69.00;;;;;;4992817;28;20123;-75
2022/04/16 10:36:03;;;;;;;6.22;2.40;;;15.60;69.10;;;;;;4977458;28;20073;-75
2022/04/16 10:38:34;;;;;;;5.68;2.30;;;15.60;68.90;;;;;;4992516;28;20038;-76
2022/04/16 10:41:03;;;;;;;5.57;2.38;;;15.60;69.40;;;;;;5007000;28;20054;-76
2022/04/16 10:43:31;;;;;;;5.22;2.00;;;15.60;69.00;;;;;;4991896;28;20037;-76
2022/04/16 10:46:03;;;;;;;2.88;2.17;;;15.60;69.10;;;;;;4981119;28;20104;-76
2022/04/16 10:48:33;;;;;;;5.07;2.28;;;15.60;69.30;;;;;;4991205;28;20044;-76
2022/04/16 10:51:02;;;;;;;3.40;2.00;;;15.60;69.20;;;;;;4995038;28;20046;-76
2022/04/16 10:53:32;;;;;;;3.03;2.10;;;15.60;69.20;;;;;;4961792;28;20053;-76
2022/04/16 10:56:12;;;;;;;2.67;2.03;;;15.60;69.30;;;;;;4975492;28;20042;-76
2022/04/16 10:58:41;;;;;;;4.28;1.90;;;15.60;69.20;;;;;;4994260;28;20042;-77
2022/04/16 11:01:10;;;;;;;3.45;1.83;;;15.70;69.20;;;;;;5006843;28;21015;-76
2022/04/16 11:03:46;;;;;;;2.58;1.90;;;15.70;69.30;;;;;;5016016;28;20049;-76
2022/04/16 11:06:17;;;;;;;2.70;1.75;;;15.70;69.50;;;;;;5014866;28;20045;-76
2022/04/16 11:08:45;;;;;;;4.43;2.00;;;15.70;69.40;;;;;;5007369;28;20357;-76
2022/04/16 11:11:14;;;;;;;2.88;2.13;;;15.70;69.10;;;;;;5012359;28;20080;-74
2022/04/16 11:13:43;;;;;;;4.68;2.45;;;15.70;69.30;;;;;;5009310;28;20037;-76
2022/04/16 11:16:11;;;;;;;10.52;2.83;;;15.70;69.30;;;;;;4995112;28;20038;-76
2022/04/16 11:18:44;;;;;;;7.55;2.72;;;15.70;69.00;;;;;;5010507;28;20052;-76
2022/04/16 11:21:29;;;;;;;4.85;2.42;;;15.70;68.90;;;;;;5001720;28;20720;-77
2022/04/16 11:23:56;;;;;;;6.43;2.15;;;15.70;68.70;;;;;;5022036;28;20056;-76
2022/04/16 11:34:52;;;;;;;5.95;2.35;;;15.70;68.60;;;;;;5036336;28;20376;-75
2022/04/16 11:37:23;;;;;;;6.03;2.10;;;15.70;68.40;;;;;;5040829;28;20045;-77
2022/04/16 11:40:00;;;;;;;5.22;2.22;;;15.70;68.60;;;;;;5009925;28;20049;-76
2022/04/16 11:42:27;;;;;;;4.95;2.00;;;15.70;68.70;;;;;;5013682;28;20045;-77
2022/04/16 11:44:54;;;;;;;3.15;2.10;;;15.70;68.60;;;;;;5021829;28;20037;-77
2022/04/16 11:47:23;;;;;;;4.15;2.08;;;15.80;68.70;;;;;;5017075;28;20041;-76
2022/04/16 11:49:52;;;;;;;5.60;2.08;;;15.70;68.50;;;;;;5006311;28;20049;-77
2022/04/16 11:52:25;;;;;;;6.93;2.13;;;15.80;68.80;;;;;;5022543;28;20132;-76
2022/04/16 11:55:00;;;;;;;4.47;2.17;;;15.70;68.60;;;;;;5017813;28;20132;-77
2022/04/16 11:57:29;;;;;;;3.85;1.92;;;15.70;68.60;;;;;;5004859;28;20053;-76
2022/04/16 12:00:00;;;;;;;2.95;2.00;;;15.70;68.60;;;;;;5016795;28;20045;-77
2022/04/16 12:02:32;;;;;;;3.28;2.08;;;15.80;68.70;;;;;;5023673;28;20048;-77
2022/04/16 12:05:08;;;;;;;3.17;2.00;;;15.70;68.50;;;;;;5016036;28;20043;-75
2022/04/16 12:07:37;;;;;;;4.53;2.15;;;15.80;68.70;;;;;;5025103;28;20045;-76
2022/04/16 12:10:06;;;;;;;4.35;1.80;;;15.80;68.60;;;;;;5014872;28;20744;-77
2022/04/16 12:12:44;;;;;;;3.20;2.00;;;15.70;68.50;;;;;;5019791;28;20045;-77
2022/04/16 12:15:12;;;;;;;3.10;1.90;;;15.80;68.60;;;;;;5017264;28;20116;-76
2022/04/16 12:17:41;;;;;;;3.17;1.90;;;15.70;68.60;;;;;;5016331;28;20042;-76
2022/04/16 12:20:11;;;;;;;5.47;1.98;;;15.80;68.50;;;;;;5020018;28;20064;-76
2022/04/16 12:22:51;;;;;;;3.15;1.95;;;15.80;68.60;;;;;;5017351;28;20080;-76
2022/04/16 12:25:19;;;;;;;3.33;1.80;;;15.70;68.60;;;;;;5020088;28;20049;-76
2022/04/16 12:27:48;;;;;;;4.95;2.08;;;15.80;68.70;;;;;;5017354;28;20048;-76
2022/04/16 12:30:16;;;;;;;3.00;1.90;;;15.70;68.40;;;;;;5022343;28;20042;-76
2022/04/16 12:32:54;;;;;;;2.83;1.60;;;15.80;68.50;;;;;;5018395;28;20061;-76
2022/04/16 12:35:21;;;;;;;3.13;2.00;;;15.70;68.30;;;;;;5020588;28;20044;-77
2022/04/16 12:37:49;;;;;;;3.85;1.90;;;15.80;68.50;;;;;;5018673;28;20252;-76
2022/04/16 12:40:16;;;;;;;2.70;1.77;;;15.80;68.60;;;;;;5012470;28;20123;-77
2022/04/16 12:42:43;;;;;;;2.88;1.80;;;15.70;68.50;;;;;;5020024;28;20045;-76
2022/04/16 12:45:10;;;;;;;2.60;1.70;;;15.80;68.70;;;;;;5002527;28;20046;-77
2022/04/16 12:47:37;;;;;;;2.90;1.73;;;15.80;68.80;;;;;;5022915;28;20071;-77
2022/04/16 12:50:05;;;;;;;5.63;1.90;;;15.80;68.80;;;;;;4998528;28;20149;-77
2022/04/16 12:52:32;;;;;;;2.22;1.73;;;15.70;68.60;;;;;;4990734;28;20056;-77
2022/04/16 12:55:00;;;;;;;3.60;1.80;;;15.80;68.50;;;;;;5001271;28;20041;-77
2022/04/16 12:57:27;;;;;;;2.75;1.65;;;15.80;68.70;;;;;;4999818;28;20562;-75
2022/04/16 12:59:55;;;;;;;2.88;1.90;;;15.80;68.30;;;;;;5013989;28;20054;-76
2022/04/16 13:02:22;;;;;;;3.70;1.55;;;15.70;68.20;;;;;;4993773;28;20934;-76
2022/04/16 13:04:48;;;;;;;2.53;1.67;;;15.80;68.30;;;;;;5000131;28;20056;-76
2022/04/16 13:07:15;;;;;;;3.42;1.60;;;15.70;68.40;;;;;;4998292;28;20108;-77
2022/04/16 13:09:42;;;;;;;2.75;1.80;;;15.70;68.60;;;;;;4975504;28;20552;-76
2022/04/16 13:12:11;;;;;;;2.88;1.70;;;15.70;68.10;;;;;;4984633;28;20053;-76
2022/04/16 13:14:43;;;;;;;2.63;1.60;;;15.80;68.30;;;;;;4997316;28;20042;-76